Time;durP1;ratioP1;P1;durP2;ratioP2;P2;SDS_P1;SDS_P2;PMS_P1;PMS_P2;Temp;Humidity;BMP_temperature;BMP_pressure;BME280_temperature;BME280_humidity;BME280_pressure;Samples;Min_cycle;Max_cycle;Signal;HPM_P1;HPM_P2
2023/10/25 00:00:04;;;;;;;14.93;14.53;;;12.30;99.90;;;;;;5097188;28;20462;-82
2023/10/25 00:02:32;;;;;;;15.33;14.83;;;12.40;1.00;;;;;;5096842;28;20524;-81
2023/10/25 00:05:00;;;;;;;15.07;14.50;;;12.40;99.90;;;;;;5096840;28;20513;-80
2023/10/25 00:07:30;;;;;;;15.73;15.20;;;12.40;99.90;;;;;;5096822;28;20458;-81
2023/10/25 00:10:00;;;;;;;15.00;14.57;;;12.30;31.20;;;;;;5097729;28;21020;-81
2023/10/25 00:12:29;;;;;;;15.80;15.20;;;12.30;2.60;;;;;;5095257;28;20446;-81
2023/10/25 00:14:57;;;;;;;14.20;13.80;;;12.20;37.30;;;;;;5095200;28;20477;-81
2023/10/25 00:17:25;;;;;;;14.50;13.90;;;12.20;31.70;;;;;;5100296;28;20494;-80
2023/10/25 00:19:53;;;;;;;14.30;13.70;;;12.20;1.00;;;;;;5099314;28;20482;-81
2023/10/25 00:22:22;;;;;;;14.67;14.03;;;12.10;1.00;;;;;;5097019;28;20902;-80
2023/10/25 00:24:50;;;;;;;14.40;13.80;;;12.00;99.90;;;;;;5097825;28;20809;-81
2023/10/25 00:27:19;;;;;;;14.70;14.30;;;12.10;33.60;;;;;;5096996;28;20740;-80
2023/10/25 00:29:48;;;;;;;14.60;14.20;;;12.10;1.00;;;;;;5095466;28;20464;-82
2023/10/25 00:32:16;;;;;;;15.03;14.53;;;12.10;97.20;;;;;;5095186;28;20572;-82
2023/10/25 00:34:44;;;;;;;14.40;13.90;;;12.10;99.90;;;;;;5097601;28;20482;-81
2023/10/25 00:37:12;;;;;;;14.10;13.67;;;12.00;75.20;;;;;;5098587;28;20450;-82
2023/10/25 00:39:41;;;;;;;14.30;13.80;;;12.10;99.90;;;;;;5096993;27;20442;-80
2023/10/25 00:42:09;;;;;;;14.30;13.90;;;12.10;99.90;;;;;;5097128;28;20450;-81
2023/10/25 00:44:39;;;;;;;15.30;14.70;;;12.20;1.00;;;;;;5094340;28;20481;-82
2023/10/25 00:47:08;;;;;;;14.60;14.20;;;12.20;1.00;;;;;;5095780;28;20455;-81
2023/10/25 00:49:37;;;;;;;14.40;14.00;;;12.20;93.50;;;;;;5096227;28;20528;-80
2023/10/25 00:52:06;;;;;;;14.80;14.30;;;12.20;1.00;;;;;;5095671;28;20449;-81
2023/10/25 00:54:36;;;;;;;15.57;15.07;;;12.10;1.00;;;;;;5099659;28;20480;-81
2023/10/25 00:57:04;;;;;;;15.40;14.80;;;12.10;99.90;;;;;;5098561;28;20458;-80
2023/10/25 00:59:33;;;;;;;15.17;14.77;;;12.10;99.90;;;;;;5101606;28;20458;-81
2023/10/25 01:02:04;;;;;;;15.37;14.77;;;12.00;1.00;;;;;;5104080;28;20460;-82
2023/10/25 01:04:32;;;;;;;15.17;14.70;;;12.10;1.00;;;;;;5098086;28;20541;-81
2023/10/25 01:07:01;;;;;;;15.60;15.10;;;12.10;5.50;;;;;;5097211;28;20453;-81
2023/10/25 01:09:30;;;;;;;15.17;14.77;;;12.10;99.90;;;;;;5100229;27;20966;-81
2023/10/25 01:11:59;;;;;;;15.30;14.80;;;12.10;1.00;;;;;;5105115;28;20477;-80
2023/10/25 01:14:27;;;;;;;14.87;14.40;;;12.10;1.00;;;;;;5107483;28;20470;-81
2023/10/25 01:16:56;;;;;;;15.20;14.70;;;12.10;99.90;;;;;;5105122;28;21015;-81
2023/10/25 01:19:25;;;;;;;15.40;14.90;;;12.10;1.00;;;;;;5101832;28;20461;-81
2023/10/25 01:21:54;;;;;;;15.00;14.40;;;12.10;1.00;;;;;;5097848;28;20567;-80
2023/10/25 01:24:24;;;;;;;15.10;14.70;;;12.10;99.90;;;;;;5098231;28;20513;-81
2023/10/25 01:26:52;;;;;;;15.43;14.93;;;12.00;99.90;;;;;;5097826;28;20520;-81
2023/10/25 01:29:21;;;;;;;15.43;14.93;;;11.90;99.90;;;;;;5100375;28;20475;-82
2023/10/25 01:31:48;;;;;;;15.60;15.07;;;12.00;42.20;;;;;;5101328;27;20453;-80
2023/10/25 01:34:18;;;;;;;15.13;14.67;;;12.00;99.90;;;;;;5104491;28;20457;-81
2023/10/25 01:36:47;;;;;;;14.20;13.80;;;12.00;1.00;;;;;;5103213;28;20514;-80
2023/10/25 01:39:15;;;;;;;14.10;13.60;;;12.00;99.90;;;;;;5100473;27;20545;-80
2023/10/25 01:41:45;;;;;;;14.30;13.90;;;12.10;32.50;;;;;;5099826;28;20465;-79
2023/10/25 01:44:13;;;;;;;14.70;14.30;;;12.00;99.90;;;;;;5101107;28;20461;-80
2023/10/25 01:46:41;;;;;;;14.60;14.10;;;12.00;26.60;;;;;;5093816;28;20588;-81
2023/10/25 01:49:10;;;;;;;14.93;14.33;;;11.90;99.90;;;;;;5099777;28;20457;-81
2023/10/25 01:51:38;;;;;;;15.13;14.33;;;11.90;99.90;;;;;;5099198;28;20445;-80
2023/10/25 01:54:06;;;;;;;15.07;14.47;;;11.90;32.30;;;;;;5098814;28;20480;-79
2023/10/25 01:56:34;;;;;;;14.73;14.33;;;11.90;1.00;;;;;;5112543;27;20492;-81
2023/10/25 01:59:04;;;;;;;14.40;14.00;;;12.00;1.00;;;;;;5092693;28;20450;-80
2023/10/25 02:01:32;;;;;;;14.80;14.40;;;12.00;99.90;;;;;;5091935;28;20997;-80
2023/10/25 02:04:00;;;;;;;14.90;14.50;;;12.00;1.00;;;;;;5092965;28;20824;-80
2023/10/25 02:06:30;;;;;;;14.90;14.50;;;12.00;97.80;;;;;;5095200;28;20463;-80
2023/10/25 02:08:58;;;;;;;15.00;14.50;;;12.00;99.90;;;;;;5094003;28;20465;-81
2023/10/25 02:11:27;;;;;;;14.60;14.20;;;11.90;1.00;;;;;;5094717;28;20453;-80
2023/10/25 02:13:57;;;;;;;15.20;14.70;;;11.90;99.90;;;;;;5095691;28;20599;-80
2023/10/25 02:16:27;;;;;;;14.70;14.30;;;11.90;99.90;;;;;;5090641;28;20489;-80
2023/10/25 02:18:55;;;;;;;14.97;14.50;;;12.00;1.00;;;;;;5094350;28;20458;-80
2023/10/25 02:21:23;;;;;;;14.60;14.20;;;11.90;99.90;;;;;;5096204;28;20451;-80
2023/10/25 02:23:53;;;;;;;15.40;14.90;;;12.00;98.20;;;;;;5093724;28;20490;-79
2023/10/25 02:26:21;;;;;;;15.27;14.77;;;12.00;99.90;;;;;;5094255;28;20466;-81
2023/10/25 02:28:49;;;;;;;14.20;13.80;;;12.00;31.90;;;;;;5096679;28;20458;-79
2023/10/25 02:31:17;;;;;;;15.23;14.63;;;11.90;1.00;;;;;;5096929;28;20457;-80
2023/10/25 02:33:47;;;;;;;14.57;14.17;;;12.00;31.80;;;;;;5095800;28;21027;-80
2023/10/25 02:36:15;;;;;;;15.00;14.50;;;11.90;1.00;;;;;;5095864;28;20480;-79
2023/10/25 02:38:44;;;;;;;14.43;14.03;;;11.80;99.90;;;;;;5098551;28;20460;-80
2023/10/25 02:41:12;;;;;;;15.10;14.70;;;11.90;1.00;;;;;;5098496;28;20468;-81
2023/10/25 02:43:40;;;;;;;15.30;14.80;;;11.80;1.00;;;;;;5094224;28;20484;-80
2023/10/25 02:46:09;;;;;;;14.93;14.53;;;11.70;1.00;;;;;;5095999;28;20457;-80
2023/10/25 02:48:37;;;;;;;15.50;15.00;;;11.70;99.90;;;;;;5094008;28;21349;-80
2023/10/25 02:51:07;;;;;;;14.10;13.80;;;11.70;1.00;;;;;;5099417;28;20458;-80
2023/10/25 02:53:35;;;;;;;14.23;13.83;;;11.70;1.00;;;;;;5099420;28;20514;-80
2023/10/25 02:56:06;;;;;;;14.53;14.13;;;11.80;99.90;;;;;;5097886;28;20485;-80
2023/10/25 02:58:35;;;;;;;14.70;14.30;;;11.70;99.90;;;;;;5098272;28;20452;-81
2023/10/25 03:01:04;;;;;;;14.17;13.77;;;11.70;1.00;;;;;;5101105;28;20485;-81
2023/10/25 03:03:34;;;;;;;14.50;14.10;;;11.70;1.00;;;;;;5096108;28;20545;-80
2023/10/25 03:06:02;;;;;;;14.40;14.00;;;11.70;99.90;;;;;;5097680;28;20504;-81
2023/10/25 03:08:32;;;;;;;14.60;14.20;;;11.80;99.90;;;;;;5097925;28;20500;-80
2023/10/25 03:11:00;;;;;;;14.30;13.90;;;11.70;99.90;;;;;;5100014;28;20728;-82
2023/10/25 03:13:28;;;;;;;14.60;14.20;;;11.70;99.90;;;;;;5100027;28;20454;-81
2023/10/25 03:15:57;;;;;;;14.67;14.27;;;11.60;1.00;;;;;;5100900;28;20485;-81
2023/10/25 03:18:26;;;;;;;16.10;15.50;;;11.70;31.30;;;;;;5097575;28;20526;-81
2023/10/25 03:20:54;;;;;;;15.00;14.60;;;11.70;3.60;;;;;;5100116;28;20462;-82
2023/10/25 03:23:22;;;;;;;15.10;14.70;;;11.70;1.00;;;;;;5096031;28;20485;-81
2023/10/25 03:25:52;;;;;;;14.93;14.53;;;11.60;99.90;;;;;;5095556;28;20462;-81
2023/10/25 03:28:20;;;;;;;14.20;13.77;;;11.60;99.90;;;;;;5095463;28;20481;-80
2023/10/25 03:30:49;;;;;;;14.10;13.80;;;11.70;34.60;;;;;;5098730;28;20814;-80
2023/10/25 03:33:17;;;;;;;14.60;14.20;;;11.70;1.00;;;;;;5101032;28;20551;-81
2023/10/25 03:35:52;;;;;;;14.63;14.23;;;11.70;30.00;;;;;;5097035;28;20473;-80
2023/10/25 03:38:21;;;;;;;14.90;14.50;;;11.60;1.00;;;;;;5102939;27;20462;-81
2023/10/25 03:40:49;;;;;;;14.97;14.47;;;11.70;99.90;;;;;;5099824;28;20532;-81
2023/10/25 03:43:18;;;;;;;15.70;15.20;;;11.70;99.90;;;;;;5102083;28;20920;-80
2023/10/25 03:45:47;;;;;;;15.60;15.10;;;11.70;99.90;;;;;;5096737;28;20552;-81
2023/10/25 03:48:15;;;;;;;15.30;14.80;;;11.60;1.00;;;;;;5097378;28;20461;-81
2023/10/25 03:50:43;;;;;;;16.60;15.90;;;11.60;1.50;;;;;;5098950;28;21050;-81
2023/10/25 03:53:11;;;;;;;16.70;16.10;;;11.50;1.00;;;;;;5098685;28;20450;-81
2023/10/25 03:55:39;;;;;;;17.20;16.50;;;11.50;1.00;;;;;;5096102;28;20902;-80
2023/10/25 03:58:08;;;;;;;16.63;16.03;;;11.50;1.00;;;;;;5094294;28;20545;-81
2023/10/25 04:00:43;;;;;;;15.77;15.27;;;11.50;99.90;;;;;;5095914;28;20449;-81
2023/10/25 04:03:11;;;;;;;16.00;15.10;;;11.50;99.90;;;;;;5097631;28;21401;-83
2023/10/25 04:05:40;;;;;;;15.47;14.87;;;11.50;49.10;;;;;;5097302;28;20557;-79
2023/10/25 04:08:08;;;;;;;15.17;14.67;;;11.50;1.00;;;;;;5098374;28;20445;-80
2023/10/25 04:10:36;;;;;;;15.40;14.90;;;11.50;99.90;;;;;;5097576;28;20449;-79
2023/10/25 04:13:06;;;;;;;15.67;15.07;;;11.50;1.00;;;;;;5088226;28;20465;-80
2023/10/25 04:15:36;;;;;;;15.43;14.90;;;11.50;1.00;;;;;;5096266;28;20470;-81
2023/10/25 04:18:09;;;;;;;15.60;15.10;;;11.50;1.00;;;;;;5093888;28;20449;-81
2023/10/25 04:20:37;;;;;;;15.63;15.13;;;11.40;1.00;;;;;;5086995;28;21121;-82
2023/10/25 04:23:05;;;;;;;15.60;15.10;;;11.50;99.90;;;;;;5092686;28;20454;-81
2023/10/25 04:25:33;;;;;;;16.60;15.70;;;11.50;99.90;;;;;;5093791;28;21049;-80
2023/10/25 04:28:01;;;;;;;15.60;15.10;;;11.50;29.80;;;;;;5094166;28;20453;-80
2023/10/25 04:30:30;;;;;;;15.60;15.10;;;11.50;99.90;;;;;;5094375;27;20531;-80
2023/10/25 04:32:58;;;;;;;16.80;16.20;;;11.40;1.00;;;;;;5097224;28;20521;-80
2023/10/25 04:35:27;;;;;;;16.60;15.90;;;11.40;99.90;;;;;;5092904;28;20566;-82
2023/10/25 04:37:56;;;;;;;15.93;15.33;;;11.40;31.10;;;;;;5092783;28;20473;-83
2023/10/25 04:40:24;;;;;;;15.83;15.33;;;11.40;99.90;;;;;;5095508;28;20462;-82
2023/10/25 04:42:53;;;;;;;15.20;14.70;;;11.40;99.90;;;;;;5097387;28;20449;-84
2023/10/25 04:45:22;;;;;;;15.80;15.20;;;11.40;1.00;;;;;;5092827;28;20533;-83
2023/10/25 04:47:51;;;;;;;15.67;15.17;;;11.40;1.00;;;;;;5095322;28;20454;-82
2023/10/25 04:50:20;;;;;;;15.30;14.80;;;11.40;99.90;;;;;;5095983;28;20461;-83
2023/10/25 04:52:50;;;;;;;15.20;14.70;;;11.40;99.90;;;;;;5093229;28;20441;-82
2023/10/25 04:55:19;;;;;;;15.40;14.93;;;11.40;1.00;;;;;;5092705;28;20477;-83
2023/10/25 04:57:47;;;;;;;15.60;15.10;;;11.30;11.50;;;;;;5095746;28;20500;-85
2023/10/25 05:00:15;;;;;;;15.50;15.00;;;11.30;99.90;;;;;;5091094;28;20715;-84
2023/10/25 05:02:44;;;;;;;16.80;16.00;;;11.30;1.00;;;;;;5096056;28;20456;-84
2023/10/25 05:05:12;;;;;;;15.77;15.03;;;11.40;1.00;;;;;;5090521;28;20501;-83
2023/10/25 05:07:40;;;;;;;17.30;16.40;;;11.30;99.90;;;;;;5095800;27;20457;-83
2023/10/25 05:10:12;;;;;;;17.20;16.50;;;11.30;36.30;;;;;;5093898;28;20454;-82
2023/10/25 05:12:42;;;;;;;18.57;17.20;;;11.30;99.90;;;;;;5091519;28;20450;-82
2023/10/25 05:15:12;;;;;;;17.73;16.73;;;11.30;1.00;;;;;;5092076;28;21003;-81
2023/10/25 05:17:41;;;;;;;16.53;15.63;;;11.20;1.00;;;;;;5091600;28;20497;-83
2023/10/25 05:20:10;;;;;;;18.33;16.70;;;11.20;98.90;;;;;;5092418;28;20507;-82
2023/10/25 05:22:40;;;;;;;18.53;16.60;;;11.20;1.00;;;;;;5094543;28;20454;-82
2023/10/25 05:25:11;;;;;;;17.70;16.40;;;11.10;1.00;;;;;;5093200;28;21007;-81
2023/10/25 05:27:40;;;;;;;16.53;15.63;;;11.00;1.00;;;;;;5093206;28;20465;-81
2023/10/25 05:30:12;;;;;;;16.90;16.20;;;11.00;1.00;;;;;;5089056;28;20462;-84
2023/10/25 05:32:45;;;;;;;16.63;15.87;;;11.00;1.00;;;;;;5093658;28;23316;-83
2023/10/25 05:35:15;;;;;;;17.07;16.10;;;11.10;1.00;;;;;;5091100;28;20474;-82
2023/10/25 05:37:43;;;;;;;17.53;16.83;;;11.10;1.00;;;;;;5094119;28;20469;-82
2023/10/25 05:40:15;;;;;;;18.50;17.33;;;11.10;99.90;;;;;;5095783;28;20477;-82
2023/10/25 05:42:47;;;;;;;16.73;15.93;;;11.10;1.00;;;;;;5096259;28;20525;-83
2023/10/25 05:45:16;;;;;;;18.07;16.97;;;11.00;1.00;;;;;;5096827;28;20481;-82
2023/10/25 05:47:45;;;;;;;18.20;17.10;;;11.00;1.00;;;;;;5092014;28;20462;-84
2023/10/25 05:50:14;;;;;;;18.37;17.47;;;11.10;1.00;;;;;;5091719;28;20549;-82
2023/10/25 05:52:44;;;;;;;17.90;17.00;;;11.00;30.70;;;;;;5092905;28;20511;-83
2023/10/25 05:55:16;;;;;;;17.70;16.83;;;11.00;99.90;;;;;;5092073;28;20479;-83
2023/10/25 05:57:46;;;;;;;17.73;16.63;;;11.10;2.30;;;;;;5096540;28;20469;-82
2023/10/25 06:00:16;;;;;;;17.40;16.60;;;11.00;1.00;;;;;;5095042;28;20445;-83
2023/10/25 06:02:45;;;;;;;17.27;16.47;;;11.00;99.90;;;;;;5093964;28;20445;-83
2023/10/25 06:05:14;;;;;;;17.33;16.43;;;10.90;1.00;;;;;;5091124;28;20868;-82
2023/10/25 06:07:43;;;;;;;17.50;16.50;;;10.90;1.00;;;;;;5092654;28;20443;-83
2023/10/25 06:10:14;;;;;;;17.13;16.33;;;10.80;1.00;;;;;;5093540;28;20809;-83
2023/10/25 06:12:43;;;;;;;17.43;16.53;;;10.90;99.90;;;;;;5093088;28;21069;-82
2023/10/25 06:15:12;;;;;;;17.10;16.50;;;10.90;99.90;;;;;;5087690;28;20538;-83
2023/10/25 06:17:40;;;;;;;17.00;16.40;;;11.00;1.00;;;;;;5096105;28;20477;-83
2023/10/25 06:20:13;;;;;;;16.60;16.00;;;10.90;99.90;;;;;;5092305;28;20531;-83
2023/10/25 06:22:41;;;;;;;17.00;16.40;;;10.90;1.00;;;;;;5092604;28;20461;-83
2023/10/25 06:25:10;;;;;;;16.90;16.30;;;10.90;99.90;;;;;;5096937;28;20465;-82
2023/10/25 06:27:42;;;;;;;15.83;15.23;;;11.00;99.90;;;;;;5094208;28;20886;-83
2023/10/25 06:30:12;;;;;;;15.60;15.20;;;11.00;99.90;;;;;;5097674;28;20483;-83
2023/10/25 06:32:41;;;;;;;16.30;15.70;;;11.00;99.90;;;;;;5096257;28;20480;-83
2023/10/25 06:35:10;;;;;;;16.77;16.17;;;11.00;1.00;;;;;;5098799;28;20468;-83
2023/10/25 06:37:39;;;;;;;15.30;14.87;;;11.00;99.90;;;;;;5097227;28;20510;-84
2023/10/25 06:40:08;;;;;;;15.77;15.27;;;11.10;99.90;;;;;;5098865;27;20457;-82
2023/10/25 06:42:37;;;;;;;15.33;14.83;;;11.10;99.90;;;;;;5097579;28;20487;-84
2023/10/25 06:45:09;;;;;;;16.90;16.30;;;11.10;1.00;;;;;;5096793;28;20473;-83
2023/10/25 06:47:38;;;;;;;15.60;15.10;;;11.10;1.00;;;;;;5099412;28;20536;-84
2023/10/25 06:50:08;;;;;;;16.13;15.53;;;11.10;1.00;;;;;;5096164;27;20441;-83
2023/10/25 06:52:37;;;;;;;15.93;15.33;;;11.20;1.00;;;;;;5097771;28;21057;-82
2023/10/25 06:55:06;;;;;;;16.13;15.57;;;11.20;1.00;;;;;;5098104;28;21040;-83
2023/10/25 06:57:35;;;;;;;15.77;15.20;;;11.20;1.00;;;;;;5096271;28;20465;-83
2023/10/25 07:00:08;;;;;;;15.20;14.80;;;11.30;1.00;;;;;;5099304;28;20449;-82
2023/10/25 07:02:50;;;;;;;15.60;15.10;;;11.30;99.90;;;;;;5099003;28;20464;-83
2023/10/25 07:05:20;;;;;;;16.50;15.90;;;11.40;99.90;;;;;;5094195;28;20518;-83
2023/10/25 07:07:51;;;;;;;16.80;15.67;;;11.50;99.90;;;;;;5101036;28;20506;-82
2023/10/25 07:10:20;;;;;;;17.37;16.40;;;11.50;99.90;;;;;;5093792;28;20557;-82
2023/10/25 07:12:49;;;;;;;15.63;15.03;;;11.60;99.90;;;;;;5096197;28;20528;-82
2023/10/25 07:15:18;;;;;;;16.07;15.50;;;11.60;1.00;;;;;;5095445;28;21308;-84
2023/10/25 07:17:49;;;;;;;15.40;14.80;;;11.80;99.90;;;;;;5097285;28;21455;-82
2023/10/25 07:20:18;;;;;;;16.47;15.27;;;11.90;1.00;;;;;;5102369;28;20520;-82
2023/10/25 07:22:46;;;;;;;16.63;15.97;;;12.00;1.00;;;;;;5099151;28;20454;-83
2023/10/25 07:25:15;;;;;;;16.00;15.50;;;12.00;99.90;;;;;;5098050;28;20457;-83
2023/10/25 07:27:43;;;;;;;16.20;15.60;;;12.20;1.00;;;;;;5096616;28;20460;-83
2023/10/25 07:30:12;;;;;;;15.93;15.43;;;12.40;1.00;;;;;;5100041;27;20447;-82
2023/10/25 07:32:40;;;;;;;16.87;15.97;;;12.60;99.90;;;;;;5100979;28;20525;-84
2023/10/25 07:35:11;;;;;;;16.17;15.57;;;12.80;1.00;;;;;;5098865;28;20478;-84
2023/10/25 07:37:39;;;;;;;16.13;15.53;;;13.00;99.90;;;;;;5101994;27;20469;-83
2023/10/25 07:40:09;;;;;;;15.90;15.40;;;13.20;99.90;;;;;;5102982;28;20544;-83
2023/10/25 07:42:37;;;;;;;16.30;15.73;;;13.30;99.90;;;;;;5101129;28;20458;-82
2023/10/25 07:45:06;;;;;;;16.50;15.90;;;13.40;1.00;;;;;;5096311;28;20458;-82
2023/10/25 07:47:35;;;;;;;16.70;15.87;;;13.40;1.00;;;;;;5100385;28;20508;-84
2023/10/25 07:50:05;;;;;;;16.00;15.50;;;13.40;1.00;;;;;;5099443;28;20457;-82
2023/10/25 07:52:37;;;;;;;15.83;15.20;;;13.20;1.00;;;;;;5098811;28;20484;-83
2023/10/25 07:55:06;;;;;;;15.50;15.00;;;13.10;1.00;;;;;;5100850;28;20466;-83
2023/10/25 07:57:55;;;;;;;15.23;14.70;;;13.00;8.40;;;;;;5099419;28;20481;-82
2023/10/25 08:00:26;;;;;;;16.30;15.70;;;12.80;99.90;;;;;;5097264;28;20561;-83
2023/10/25 08:02:54;;;;;;;17.13;16.33;;;12.90;99.90;;;;;;5118193;27;20473;-83
2023/10/25 08:05:24;;;;;;;16.80;15.97;;;13.40;99.90;;;;;;5093345;28;20549;-83
2023/10/25 08:07:53;;;;;;;15.47;15.07;;;13.60;1.00;;;;;;5097947;28;20449;-83
2023/10/25 08:10:22;;;;;;;15.50;15.00;;;13.90;99.90;;;;;;5099690;28;20490;-84
2023/10/25 08:12:50;;;;;;;15.50;15.00;;;13.90;99.90;;;;;;5098829;28;20466;-82
2023/10/25 08:15:19;;;;;;;15.20;14.67;;;13.90;99.90;;;;;;5097744;28;20478;-82
2023/10/25 08:17:47;;;;;;;15.50;14.90;;;13.90;99.90;;;;;;5097993;28;20462;-83
2023/10/25 08:20:16;;;;;;;16.40;15.90;;;13.70;99.90;;;;;;5100909;27;20544;-82
2023/10/25 08:22:44;;;;;;;15.40;14.90;;;13.50;1.00;;;;;;5103068;27;20458;-83
2023/10/25 08:25:15;;;;;;;15.30;14.70;;;13.50;1.00;;;;;;5103257;28;20530;-82
2023/10/25 08:27:43;;;;;;;15.47;14.87;;;13.50;1.00;;;;;;5101701;28;20729;-83
2023/10/25 08:30:12;;;;;;;14.77;14.37;;;13.40;92.70;;;;;;5099399;27;20461;-82
2023/10/25 08:32:40;;;;;;;14.47;14.07;;;13.30;38.00;;;;;;5097272;28;20450;-82
2023/10/25 08:35:09;;;;;;;15.43;14.93;;;13.30;99.90;;;;;;5100925;28;20577;-82
2023/10/25 08:37:38;;;;;;;15.40;14.70;;;13.10;99.90;;;;;;5101169;28;20822;-81
2023/10/25 08:40:11;;;;;;;15.30;14.70;;;13.10;1.00;;;;;;5106405;27;20481;-81
2023/10/25 08:42:41;;;;;;;16.10;15.33;;;13.10;1.00;;;;;;5102595;28;20457;-81
2023/10/25 08:45:14;;;;;;;15.50;14.80;;;13.10;1.00;;;;;;5104178;28;20536;-82
2023/10/25 08:47:43;;;;;;;15.00;14.50;;;13.10;1.00;;;;;;5103127;28;21284;-83
2023/10/25 08:50:19;;;;;;;15.17;14.57;;;13.20;1.00;;;;;;5097575;28;20443;-82
2023/10/25 08:52:49;;;;;;;15.20;14.50;;;13.10;1.00;;;;;;5100434;28;20457;-82
2023/10/25 08:55:19;;;;;;;14.63;14.00;;;13.10;1.00;;;;;;5105168;28;21243;-83
2023/10/25 08:57:54;;;;;;;15.00;14.50;;;13.10;1.00;;;;;;5102436;28;20450;-82
2023/10/25 09:00:24;;;;;;;15.23;14.60;;;13.10;1.00;;;;;;5101326;28;21011;-82
2023/10/25 09:03:44;;;;;;;15.40;14.80;;;13.10;1.00;;;;;;5102103;28;20489;-82
2023/10/25 09:06:23;;;;;;;14.97;14.47;;;13.00;56.70;;;;;;5103069;28;20512;-81
2023/10/25 09:09:05;;;;;;;14.80;14.30;;;13.00;51.10;;;;;;5103316;28;20545;-82
2023/10/25 09:11:44;;;;;;;14.80;14.30;;;13.00;99.90;;;;;;5101752;28;20480;-83
2023/10/25 09:14:15;;;;;;;15.10;14.50;;;12.90;99.90;;;;;;5104019;28;20453;-82
2023/10/25 09:16:45;;;;;;;15.30;14.80;;;12.90;1.00;;;;;;5098954;28;21153;-84
2023/10/25 09:19:19;;;;;;;15.80;15.20;;;13.00;1.00;;;;;;5103356;28;20457;-81
2023/10/25 09:21:48;;;;;;;15.50;15.00;;;13.00;99.90;;;;;;5102709;28;20491;-81
2023/10/25 09:24:16;;;;;;;14.63;14.23;;;12.90;1.00;;;;;;5103283;28;20466;-81
2023/10/25 09:26:46;;;;;;;15.57;14.97;;;12.90;1.00;;;;;;5100372;28;20540;-82
2023/10/25 09:29:26;;;;;;;15.73;15.13;;;12.90;1.00;;;;;;5102388;28;20528;-81
2023/10/25 09:32:07;;;;;;;15.80;15.20;;;12.90;1.00;;;;;;5103874;28;20453;-82
2023/10/25 09:34:36;;;;;;;15.43;14.97;;;12.90;99.90;;;;;;5105282;28;20472;-81
2023/10/25 09:37:06;;;;;;;15.07;14.57;;;13.00;1.00;;;;;;5098913;28;21088;-81
2023/10/25 09:39:37;;;;;;;15.80;15.30;;;12.90;99.90;;;;;;5102945;28;20530;-82
2023/10/25 09:42:07;;;;;;;15.60;15.10;;;13.00;1.00;;;;;;5099127;28;20512;-83
2023/10/25 09:44:45;;;;;;;15.83;14.97;;;13.10;1.00;;;;;;5102487;28;20461;-82
2023/10/25 09:47:17;;;;;;;15.60;15.10;;;13.10;1.00;;;;;;5101161;28;20470;-81
2023/10/25 09:49:51;;;;;;;16.77;16.17;;;13.10;1.00;;;;;;5105274;28;20566;-81
2023/10/25 09:52:26;;;;;;;16.33;15.83;;;13.20;99.90;;;;;;5104950;28;20454;-81
2023/10/25 09:55:03;;;;;;;17.20;16.20;;;13.30;99.90;;;;;;5098578;28;20981;-81
2023/10/25 09:57:33;;;;;;;16.13;15.63;;;13.40;1.00;;;;;;5099293;28;20461;-82
2023/10/25 10:00:08;;;;;;;17.00;16.40;;;13.60;1.00;;;;;;5100840;28;20974;-82
2023/10/25 10:02:45;;;;;;;16.40;15.90;;;13.80;99.90;;;;;;5096860;28;20445;-80
2023/10/25 10:05:21;;;;;;;14.83;14.43;;;13.80;17.70;;;;;;5100824;28;20478;-82
2023/10/25 10:08:01;;;;;;;15.40;14.90;;;13.70;1.00;;;;;;5102083;28;20450;-82
2023/10/25 10:10:36;;;;;;;15.37;14.90;;;13.70;69.20;;;;;;5099944;28;20449;-81
2023/10/25 10:13:15;;;;;;;15.97;15.57;;;13.60;99.90;;;;;;5098997;28;20463;-82
2023/10/25 10:16:00;;;;;;;15.57;15.17;;;13.50;86.20;;;;;;5103577;28;20478;-81
2023/10/25 10:18:31;;;;;;;15.60;15.10;;;13.40;99.90;;;;;;5101732;28;20848;-81
2023/10/25 10:21:01;;;;;;;15.23;14.80;;;13.40;1.00;;;;;;5100842;28;20477;-82
2023/10/25 10:23:38;;;;;;;15.60;15.20;;;13.50;97.20;;;;;;5099885;28;20482;-84
2023/10/25 10:26:11;;;;;;;14.80;14.40;;;13.50;99.90;;;;;;5101055;28;20833;-83
2023/10/25 10:28:42;;;;;;;15.30;14.80;;;13.50;99.90;;;;;;5100401;28;20577;-83
2023/10/25 10:31:13;;;;;;;15.30;14.77;;;13.50;99.90;;;;;;5104452;28;20450;-83
2023/10/25 10:33:44;;;;;;;15.37;14.77;;;13.60;1.00;;;;;;5106147;28;20472;-82
2023/10/25 10:36:23;;;;;;;14.97;14.47;;;13.60;99.90;;;;;;5103250;28;20501;-82
2023/10/25 10:39:15;;;;;;;15.10;14.60;;;13.80;99.90;;;;;;5101094;28;20454;-82
2023/10/25 10:41:44;;;;;;;16.27;15.20;;;14.00;99.90;;;;;;5103793;28;20471;-82
2023/10/25 10:44:13;;;;;;;14.80;14.30;;;14.10;1.00;;;;;;5101899;28;20489;-82
2023/10/25 10:46:51;;;;;;;14.50;14.20;;;14.10;1.00;;;;;;5101618;28;20476;-83
2023/10/25 10:49:21;;;;;;;14.73;14.33;;;14.30;27.40;;;;;;5100518;28;20457;-83
2023/10/25 10:51:50;;;;;;;14.60;14.20;;;14.30;1.00;;;;;;5101008;28;20957;-83
2023/10/25 10:54:18;;;;;;;15.30;14.87;;;14.10;1.00;;;;;;5100255;28;21132;-80
2023/10/25 10:56:47;;;;;;;15.30;14.90;;;14.10;99.90;;;;;;5100518;28;20469;-83
2023/10/25 10:59:16;;;;;;;15.40;15.00;;;14.00;99.90;;;;;;5101099;28;20480;-83
2023/10/25 11:01:46;;;;;;;22.53;21.23;;;14.00;99.90;;;;;;5102121;28;20530;-82
2023/10/25 11:04:15;;;;;;;15.97;15.47;;;14.00;85.10;;;;;;5098112;28;20462;-82
2023/10/25 11:06:43;;;;;;;14.30;14.00;;;14.00;65.00;;;;;;5102765;28;20974;-83
2023/10/25 11:09:12;;;;;;;14.97;14.67;;;14.00;1.00;;;;;;5100892;28;20447;-82
2023/10/25 11:11:40;;;;;;;15.50;15.00;;;14.00;1.00;;;;;;5104363;28;21333;-83
2023/10/25 11:14:09;;;;;;;14.97;14.57;;;13.90;1.00;;;;;;5108690;28;20966;-83
2023/10/25 11:16:37;;;;;;;14.73;14.33;;;14.00;12.00;;;;;;5101173;27;20528;-82
2023/10/25 11:19:09;;;;;;;15.27;14.80;;;14.00;99.90;;;;;;5104171;28;20511;-82
2023/10/25 11:21:37;;;;;;;15.00;14.60;;;14.10;99.90;;;;;;5103435;28;20489;-81
2023/10/25 11:24:09;;;;;;;15.13;14.80;;;14.30;1.00;;;;;;5105349;28;20458;-82
2023/10/25 11:26:40;;;;;;;15.10;14.70;;;14.50;1.00;;;;;;5101652;28;20518;-82
2023/10/25 11:29:09;;;;;;;14.80;14.30;;;14.70;99.90;;;;;;5101154;28;20454;-83
2023/10/25 11:31:41;;;;;;;14.63;14.23;;;14.80;1.00;;;;;;5098766;28;20459;-82
2023/10/25 11:34:11;;;;;;;14.53;14.23;;;14.80;1.00;;;;;;5103567;28;20602;-82
2023/10/25 11:36:40;;;;;;;14.67;14.37;;;14.90;1.00;;;;;;5100611;28;20508;-81
2023/10/25 11:39:09;;;;;;;15.43;15.03;;;14.90;1.00;;;;;;5104920;27;20449;-80
2023/10/25 11:41:37;;;;;;;15.60;15.10;;;14.80;1.00;;;;;;5099368;28;21052;-81
2023/10/25 11:44:06;;;;;;;14.87;14.47;;;15.00;1.00;;;;;;5094299;28;20573;-80
2023/10/25 11:46:36;;;;;;;15.07;14.67;;;15.20;99.90;;;;;;5096752;28;20476;-81
2023/10/25 11:49:05;;;;;;;14.77;14.40;;;15.40;99.90;;;;;;5099328;28;20462;-82
2023/10/25 11:51:36;;;;;;;14.63;14.23;;;15.50;99.90;;;;;;5099094;28;20450;-81
2023/10/25 11:54:05;;;;;;;14.37;14.07;;;15.60;99.90;;;;;;5100594;28;20462;-81
2023/10/25 11:56:45;;;;;;;14.10;13.80;;;15.60;99.90;;;;;;5098116;28;20501;-80
2023/10/25 11:59:13;;;;;;;13.90;13.60;;;15.40;52.30;;;;;;5094389;28;20449;-81
2023/10/25 12:01:42;;;;;;;14.03;13.63;;;15.30;49.60;;;;;;5095500;28;20482;-79
2023/10/25 12:04:10;;;;;;;14.23;13.83;;;15.20;99.90;;;;;;5099675;28;20457;-79
2023/10/25 12:06:40;;;;;;;14.43;14.03;;;15.20;99.90;;;;;;5097189;28;20527;-82
2023/10/25 12:09:09;;;;;;;14.20;13.80;;;15.20;99.90;;;;;;5102293;28;20453;-80
2023/10/25 12:11:37;;;;;;;14.00;13.70;;;15.10;99.90;;;;;;5103221;27;20862;-82
2023/10/25 12:14:08;;;;;;;14.13;13.80;;;15.10;99.90;;;;;;5101124;28;21076;-83
2023/10/25 12:16:41;;;;;;;14.30;13.83;;;15.10;99.90;;;;;;5102896;28;20478;-80
2023/10/25 12:19:13;;;;;;;14.13;13.83;;;15.20;99.90;;;;;;5097876;28;20959;-81
2023/10/25 12:21:43;;;;;;;13.60;13.30;;;15.20;99.90;;;;;;5100460;28;20477;-82
2023/10/25 12:24:12;;;;;;;13.70;13.40;;;15.10;99.90;;;;;;5100238;28;20457;-81
2023/10/25 12:26:40;;;;;;;13.60;13.30;;;15.10;99.90;;;;;;5096267;27;20480;-82
2023/10/25 12:29:09;;;;;;;13.70;13.30;;;15.20;99.90;;;;;;5091674;28;20731;-83
2023/10/25 12:31:37;;;;;;;13.70;13.40;;;15.30;99.90;;;;;;5096494;28;20454;-81
2023/10/25 12:34:06;;;;;;;13.60;13.30;;;15.30;67.80;;;;;;5096927;28;20997;-80
2023/10/25 12:36:34;;;;;;;13.77;13.37;;;15.30;1.00;;;;;;5099908;27;20526;-82
2023/10/25 12:39:05;;;;;;;13.77;13.37;;;15.20;1.00;;;;;;5101686;28;20461;-82
2023/10/25 12:41:33;;;;;;;13.70;13.40;;;15.10;1.00;;;;;;5099356;28;20511;-81
2023/10/25 12:44:04;;;;;;;13.83;13.50;;;15.00;58.40;;;;;;5097787;28;20532;-84